createdAt,value
2022-11-16T00:01:30.191Z,14.63
2022-11-16T00:03:59.823Z,9.57
2022-11-16T00:06:28.002Z,11.02
2022-11-16T00:09:20.022Z,11.75
2022-11-16T00:11:48.882Z,16.35
2022-11-16T00:14:15.649Z,9.85
2022-11-16T00:16:42.897Z,9.68
2022-11-16T00:19:11.357Z,11.75
2022-11-16T00:21:38.193Z,13.40
2022-11-16T00:24:05.521Z,11.38
2022-11-16T00:26:32.383Z,9.50
2022-11-16T00:28:59.346Z,11.15
2022-11-16T00:31:26.306Z,9.43
2022-11-16T00:33:53.122Z,11.93
2022-11-16T00:36:20.038Z,11.70
2022-11-16T00:38:47.580Z,11.45
2022-11-16T00:41:14.602Z,9.35
2022-11-16T00:43:41.456Z,11.90
2022-11-16T00:46:09.306Z,10.55
2022-11-16T00:48:37.231Z,11.32
2022-11-16T00:51:04.468Z,10.57
2022-11-16T00:53:31.359Z,12.07
2022-11-16T00:55:58.142Z,12.48
2022-11-16T00:58:25.047Z,11.00
2022-11-16T01:00:52.148Z,13.25
2022-11-16T01:03:18.914Z,13.45
2022-11-16T01:05:45.842Z,13.05
2022-11-16T01:08:12.748Z,10.80
2022-11-16T01:10:41.274Z,9.85
2022-11-16T01:13:08.082Z,10.38
2022-11-16T01:15:34.901Z,10.32
2022-11-16T01:18:01.740Z,10.98
2022-11-16T01:20:30.090Z,9.50
2022-11-16T01:22:57.271Z,12.07
2022-11-16T01:25:24.045Z,9.20
2022-11-16T01:27:50.942Z,9.77
2022-11-16T01:30:17.800Z,11.20
2022-11-16T01:32:44.657Z,9.63
2022-11-16T01:35:16.066Z,8.75
2022-11-16T01:37:42.861Z,11.48
2022-11-16T01:40:11.060Z,8.40
2022-11-16T01:42:38.206Z,11.00
2022-11-16T01:45:23.125Z,13.57
2022-11-16T01:47:52.040Z,12.93
2022-11-16T01:50:19.654Z,12.38
2022-11-16T01:52:53.325Z,8.93
2022-11-16T01:55:22.123Z,11.75
2022-11-16T01:57:49.526Z,11.18
2022-11-16T02:00:17.411Z,11.48
2022-11-16T02:02:44.701Z,12.10
2022-11-16T02:05:15.740Z,12.95
2022-11-16T02:08:07.180Z,9.93
2022-11-16T02:11:00.334Z,12.02
2022-11-16T02:13:27.055Z,13.55
2022-11-16T02:16:25.118Z,9.88
2022-11-16T02:19:10.710Z,11.20
2022-11-16T02:22:02.036Z,10.52
2022-11-16T02:24:43.648Z,12.52
2022-11-16T02:27:45.173Z,10.65
2022-11-16T02:30:12.591Z,10.73
2022-11-16T02:32:45.418Z,10.93
2022-11-16T02:35:35.489Z,8.65
2022-11-16T02:38:09.142Z,12.70
2022-11-16T02:40:38.418Z,9.95
2022-11-16T02:43:12.104Z,11.18
2022-11-16T02:45:44.008Z,10.13
2022-11-16T02:48:21.079Z,10.05
2022-11-16T02:50:52.885Z,10.88
2022-11-16T02:53:24.486Z,11.13
2022-11-16T02:55:51.922Z,13.65
2022-11-16T02:58:22.578Z,10.90
2022-11-16T03:01:00.381Z,9.70
2022-11-16T03:03:40.598Z,12.68
2022-11-16T03:06:16.413Z,11.88
2022-11-16T03:08:48.004Z,9.85
2022-11-16T03:11:33.984Z,10.15
2022-11-16T03:14:05.676Z,11.32
2022-11-16T03:16:45.294Z,9.52
2022-11-16T03:19:17.059Z,15.85
2022-11-16T03:22:26.720Z,11.48
2022-11-16T03:24:53.939Z,15.48
2022-11-16T03:27:40.541Z,11.25
2022-11-16T03:30:23.346Z,11.85
2022-11-16T03:35:37.921Z,10.98
2022-11-16T03:38:06.646Z,13.35
2022-11-16T03:40:35.079Z,14.75
2022-11-16T03:43:04.068Z,11.50
2022-11-16T03:45:32.541Z,14.02
2022-11-16T03:48:00.506Z,12.93
2022-11-16T03:50:27.389Z,16.48
2022-11-16T03:52:54.232Z,18.55
2022-11-16T03:55:21.091Z,17.73
2022-11-16T03:57:47.855Z,14.73
2022-11-16T04:00:14.865Z,17.25
2022-11-16T04:02:42.071Z,14.00
2022-11-16T04:05:28.435Z,14.18
2022-11-16T04:08:13.771Z,18.25
2022-11-16T04:10:59.003Z,17.50
2022-11-16T04:13:48.626Z,17.17
2022-11-16T04:16:34.435Z,17.30
2022-11-16T04:19:19.699Z,15.48
2022-11-16T04:22:15.755Z,17.85
2022-11-16T04:24:45.852Z,24.13
2022-11-16T04:27:34.236Z,20.33
2022-11-16T04:30:02.871Z,23.65
2022-11-16T04:32:48.587Z,19.10
2022-11-16T04:35:34.084Z,17.85
2022-11-16T04:38:01.061Z,18.23
2022-11-16T04:40:29.530Z,16.92
2022-11-16T04:43:01.678Z,19.88
2022-11-16T04:45:47.995Z,19.60
2022-11-16T04:48:16.858Z,21.55
2022-11-16T04:50:44.032Z,19.70
2022-11-16T04:53:11.665Z,21.92
2022-11-16T04:55:38.460Z,16.75
2022-11-16T04:58:05.559Z,22.52
2022-11-16T05:00:32.698Z,20.58
2022-11-16T05:03:01.527Z,25.23
2022-11-16T05:05:28.987Z,21.48
2022-11-16T05:07:55.993Z,19.95
2022-11-16T05:10:23.145Z,24.83
2022-11-16T05:12:50.064Z,22.85
2022-11-16T05:15:19.649Z,21.48
2022-11-16T05:17:46.976Z,32.97
2022-11-16T05:20:32.959Z,17.80
2022-11-16T05:22:59.816Z,19.20
2022-11-16T05:25:30.223Z,25.10
2022-11-16T05:27:59.501Z,22.02
2022-11-16T05:30:26.343Z,26.55
2022-11-16T05:32:53.137Z,24.13
2022-11-16T05:35:19.904Z,20.35
2022-11-16T05:37:46.672Z,16.45
2022-11-16T05:40:13.529Z,23.13
2022-11-16T05:42:40.280Z,19.30
2022-11-16T05:45:07.473Z,19.85
2022-11-16T05:47:34.277Z,20.00
2022-11-16T05:50:01.194Z,23.95
2022-11-16T05:52:27.942Z,18.67
2022-11-16T05:54:54.691Z,20.95
2022-11-16T05:57:21.496Z,22.00
2022-11-16T05:59:48.311Z,28.42
2022-11-16T06:02:15.088Z,23.05
2022-11-16T06:04:41.894Z,21.98
2022-11-16T06:07:08.726Z,22.58
2022-11-16T06:09:35.518Z,26.15
2022-11-16T06:12:02.536Z,22.38
2022-11-16T06:14:29.338Z,30.40
2022-11-16T06:16:56.093Z,23.63
2022-11-16T06:19:24.377Z,23.08
2022-11-16T06:21:52.843Z,26.13
2022-11-16T06:24:19.610Z,28.40
2022-11-16T06:26:47.147Z,26.08
2022-11-16T06:29:14.274Z,29.27
2022-11-16T06:31:41.027Z,25.70
2022-11-16T06:34:07.891Z,24.45
2022-11-16T06:36:34.815Z,21.67
2022-11-16T06:39:01.646Z,32.08
2022-11-16T06:41:28.457Z,29.27
2022-11-16T06:43:55.310Z,30.52
2022-11-16T06:46:22.123Z,26.13
2022-11-16T06:48:48.890Z,28.42
2022-11-16T06:51:15.886Z,25.80
2022-11-16T06:53:43.238Z,29.60
2022-11-16T06:56:13.506Z,58.20
2022-11-16T06:58:42.740Z,37.35
2022-11-16T07:01:11.394Z,35.00
2022-11-16T07:03:38.709Z,30.73
2022-11-16T07:06:14.966Z,25.70
2022-11-16T07:08:41.798Z,22.52
2022-11-16T07:11:09.770Z,38.00
2022-11-16T07:13:37.976Z,35.83
2022-11-16T07:16:09.675Z,28.08
2022-11-16T07:18:38.896Z,28.23
2022-11-16T07:21:10.644Z,29.40
2022-11-16T07:23:38.286Z,37.25
2022-11-16T07:26:06.825Z,30.00
2022-11-16T07:28:34.243Z,46.78
2022-11-16T07:31:05.902Z,28.25
2022-11-16T07:33:33.077Z,27.40
2022-11-16T07:36:13.496Z,28.85
2022-11-16T07:38:40.587Z,38.67
2022-11-16T07:41:10.784Z,32.40
2022-11-16T07:43:37.884Z,32.78
2022-11-16T07:49:00.085Z,29.98
2022-11-16T07:51:26.945Z,28.80
2022-11-16T07:53:58.092Z,32.53
2022-11-16T07:56:25.512Z,37.15
2022-11-16T07:58:52.528Z,31.27
2022-11-16T08:01:19.771Z,33.38
2022-11-16T08:03:46.997Z,55.40
2022-11-16T08:06:17.609Z,32.20
2022-11-16T08:08:44.513Z,39.15
2022-11-16T08:11:12.473Z,37.88
2022-11-16T08:13:40.925Z,52.78
2022-11-16T08:16:11.629Z,52.15
2022-11-16T08:18:39.329Z,47.22
2022-11-16T08:21:07.908Z,46.22
2022-11-16T08:23:35.081Z,33.03
2022-11-16T08:26:09.348Z,29.90
2022-11-16T08:28:37.631Z,36.58
2022-11-16T08:31:09.869Z,34.33
2022-11-16T08:33:36.879Z,35.33
2022-11-16T08:36:10.866Z,69.30
2022-11-16T08:38:40.767Z,37.85
2022-11-16T08:41:08.391Z,37.83
2022-11-16T08:43:35.956Z,41.67
2022-11-16T08:46:03.407Z,33.30
2022-11-16T08:48:30.666Z,38.75
2022-11-16T08:51:21.580Z,36.85
2022-11-16T08:53:49.528Z,71.53
2022-11-16T08:56:18.136Z,36.08
2022-11-16T08:58:47.427Z,39.10
2022-11-16T09:01:20.047Z,35.53
2022-11-16T09:03:47.040Z,39.88
2022-11-16T09:06:14.911Z,36.15
2022-11-16T09:08:44.123Z,33.95
2022-11-16T09:11:16.326Z,35.95
2022-11-16T09:13:44.756Z,36.88
2022-11-16T09:16:11.639Z,31.65
2022-11-16T09:18:38.542Z,41.72
2022-11-16T09:21:05.626Z,35.33
2022-11-16T09:23:32.507Z,39.15
2022-11-16T09:26:06.282Z,36.63
2022-11-16T09:28:34.014Z,35.75
2022-11-16T09:31:04.439Z,52.08
2022-11-16T09:33:33.297Z,30.77
2022-11-16T09:36:08.966Z,32.33
2022-11-16T09:39:13.896Z,36.53
2022-11-16T09:41:52.363Z,29.60
2022-11-16T09:44:39.909Z,31.00
2022-11-16T09:47:23.932Z,27.67
2022-11-16T09:50:00.019Z,27.08
2022-11-16T09:52:43.614Z,23.83
2022-11-16T09:55:38.571Z,26.77
2022-11-16T09:58:17.787Z,21.90
2022-11-16T10:00:50.130Z,22.88
2022-11-16T10:03:17.063Z,21.38
2022-11-16T10:05:46.594Z,20.75
2022-11-16T10:08:33.497Z,24.85
2022-11-16T10:11:24.093Z,17.98
2022-11-16T10:14:10.506Z,18.65
2022-11-16T10:16:54.470Z,18.73
2022-11-16T10:20:02.567Z,19.60
2022-11-16T10:22:43.734Z,18.38
2022-11-16T10:25:21.288Z,16.80
2022-11-16T10:28:06.047Z,15.98
2022-11-16T10:30:44.974Z,16.95
2022-11-16T10:33:18.579Z,14.55
2022-11-16T10:35:53.673Z,16.80
2022-11-16T10:38:33.258Z,18.60
2022-11-16T10:41:14.425Z,12.48
2022-11-16T10:43:43.197Z,16.88
2022-11-16T10:46:55.814Z,15.35
2022-11-16T10:49:50.695Z,15.30
2022-11-16T10:52:17.480Z,18.35
2022-11-16T10:54:44.721Z,16.30
2022-11-16T10:57:14.227Z,15.25
2022-11-16T10:59:50.328Z,12.23
2022-11-16T11:02:23.246Z,12.00
2022-11-16T11:05:20.118Z,13.63
2022-11-16T11:07:59.771Z,13.05
2022-11-16T11:10:32.896Z,15.15
2022-11-16T11:13:08.081Z,16.13
2022-11-16T11:15:34.932Z,13.63
2022-11-16T11:18:19.040Z,7.97
2022-11-16T11:20:50.302Z,12.10
2022-11-16T11:23:26.236Z,9.45
2022-11-16T11:26:00.563Z,16.23
2022-11-16T11:28:32.626Z,11.00
2022-11-16T11:31:07.218Z,9.63
2022-11-16T11:33:41.458Z,12.43
2022-11-16T11:36:18.806Z,12.68
2022-11-16T11:39:02.118Z,10.55
2022-11-16T11:44:04.574Z,9.63
2022-11-16T11:47:11.059Z,11.60
2022-11-16T11:49:33.841Z,12.57
2022-11-16T11:52:31.145Z,5.85
2022-11-16T11:54:58.001Z,11.52
2022-11-16T11:57:25.743Z,11.75
2022-11-16T11:59:54.836Z,13.30
2022-11-16T12:02:40.821Z,12.55
2022-11-16T12:05:41.431Z,7.72
2022-11-16T12:08:26.309Z,11.50
2022-11-16T12:11:01.519Z,7.03
2022-11-16T12:13:37.995Z,11.35
2022-11-16T12:16:36.862Z,13.63
2022-11-16T12:19:22.439Z,14.00
2022-11-16T12:22:08.836Z,13.23
2022-11-16T12:25:06.541Z,10.00
2022-11-16T12:27:39.555Z,11.82
2022-11-16T12:30:18.202Z,11.63
2022-11-16T12:33:10.543Z,10.90
2022-11-16T12:36:19.606Z,14.45
2022-11-16T12:39:15.503Z,12.43
2022-11-16T12:42:07.898Z,11.32
2022-11-16T12:44:47.135Z,10.65
2022-11-16T12:47:39.068Z,8.30
2022-11-16T12:50:18.408Z,6.95
2022-11-16T12:52:53.951Z,12.20
2022-11-16T12:55:46.065Z,19.83
2022-11-16T12:58:20.813Z,9.88
2022-11-16T13:00:57.340Z,8.95
2022-11-16T13:03:35.948Z,9.68
2022-11-16T13:06:08.527Z,7.80
2022-11-16T13:08:50.704Z,11.25
2022-11-16T13:11:25.560Z,13.48
2022-11-16T13:13:58.096Z,12.35
2022-11-16T13:16:26.047Z,9.57
2022-11-16T13:18:55.089Z,10.93
2022-11-16T13:21:26.023Z,15.43
2022-11-16T13:24:14.835Z,13.50
2022-11-16T13:26:53.624Z,12.27
2022-11-16T13:29:34.189Z,14.75
2022-11-16T13:32:14.391Z,12.73
2022-11-16T13:34:42.119Z,6.70
2022-11-16T13:37:34.028Z,8.07
2022-11-16T13:40:00.938Z,12.38
2022-11-16T13:42:30.150Z,13.75
2022-11-16T13:45:18.890Z,12.50
2022-11-16T13:47:52.014Z,19.90
2022-11-16T13:54:37.747Z,12.07
2022-11-16T13:56:13.572Z,12.48
2022-11-16T13:58:47.050Z,11.32
2022-11-16T14:01:14.607Z,15.73
2022-11-16T14:03:47.407Z,10.90
2022-11-16T14:06:19.886Z,16.35
2022-11-16T14:08:49.440Z,11.63
2022-11-16T14:11:39.423Z,16.63
2022-11-16T14:14:11.096Z,9.27
2022-11-16T14:16:46.481Z,11.57
2022-11-16T14:19:44.811Z,10.50
2022-11-16T14:22:39.634Z,10.90
2022-11-16T14:25:29.927Z,15.27
2022-11-16T14:28:27.953Z,14.20
2022-11-16T14:31:28.380Z,14.05
2022-11-16T14:33:58.512Z,13.75
2022-11-16T14:36:38.542Z,12.63
2022-11-16T14:39:42.958Z,11.40
2022-11-16T14:42:38.073Z,12.05
2022-11-16T14:45:45.778Z,15.82
2022-11-16T14:48:22.257Z,12.80
2022-11-16T14:51:09.713Z,13.35
2022-11-16T14:53:41.878Z,14.27
2022-11-16T14:56:17.188Z,11.88
2022-11-16T14:59:02.960Z,10.40
2022-11-16T15:01:33.789Z,10.27
2022-11-16T15:04:09.389Z,15.00
2022-11-16T15:07:02.252Z,18.77
2022-11-16T15:09:41.280Z,12.73
2022-11-16T15:12:35.520Z,16.90
2022-11-16T15:15:10.513Z,22.63
2022-11-16T15:17:43.301Z,12.02
2022-11-16T15:20:23.697Z,14.77
2022-11-16T15:22:56.862Z,10.95
2022-11-16T15:27:57.039Z,14.88
2022-11-16T15:30:34.112Z,19.85
2022-11-16T15:33:10.318Z,9.27
2022-11-16T15:35:38.142Z,10.85
2022-11-16T15:38:21.880Z,12.73
2022-11-16T15:40:53.438Z,10.48
2022-11-16T15:43:33.395Z,16.08
2022-11-16T15:46:01.828Z,12.45
2022-11-16T15:48:29.560Z,10.10
2022-11-16T15:51:16.748Z,15.57
2022-11-16T15:53:46.075Z,14.77
2022-11-16T15:56:27.708Z,16.60
2022-11-16T15:58:57.346Z,12.43
2022-11-16T16:01:25.720Z,17.70
2022-11-16T16:04:06.653Z,13.70
2022-11-16T16:06:45.539Z,6.90
2022-11-16T16:09:29.110Z,13.07
2022-11-16T16:12:15.318Z,17.23
2022-11-16T16:14:42.581Z,13.32
2022-11-16T16:17:11.394Z,14.13
2022-11-16T16:19:44.285Z,12.15
2022-11-16T16:22:26.711Z,12.35
2022-11-16T16:24:54.542Z,14.23
2022-11-16T16:27:24.217Z,14.90
2022-11-16T16:29:53.547Z,10.60
2022-11-16T16:32:29.162Z,14.68
2022-11-16T16:34:58.195Z,14.43
2022-11-16T16:37:30.936Z,12.73
2022-11-16T16:39:58.745Z,10.52
2022-11-16T16:42:25.904Z,14.70
2022-11-16T16:44:53.042Z,13.02
2022-11-16T16:47:20.793Z,9.55
2022-11-16T16:49:50.725Z,12.50
2022-11-16T16:52:17.865Z,17.55
2022-11-16T16:54:44.699Z,12.80
2022-11-16T16:57:18.511Z,16.15
2022-11-16T16:59:45.944Z,17.88
2022-11-16T17:02:13.329Z,16.17
2022-11-16T17:04:40.763Z,9.93
2022-11-16T17:07:07.694Z,10.05
2022-11-16T17:09:34.545Z,14.07
2022-11-16T17:12:01.680Z,15.32
2022-11-16T17:14:28.594Z,14.40
2022-11-16T17:16:55.971Z,14.50
2022-11-16T17:19:22.825Z,16.15
2022-11-16T17:21:51.668Z,14.18
2022-11-16T17:24:18.670Z,11.85
2022-11-16T17:26:48.289Z,12.15
2022-11-16T17:29:15.568Z,12.15
2022-11-16T17:31:44.142Z,13.90
2022-11-16T17:34:13.726Z,16.27
2022-11-16T17:36:41.744Z,14.02
2022-11-16T17:39:08.701Z,14.18
2022-11-16T17:41:35.582Z,10.07
2022-11-16T17:44:02.403Z,10.27
2022-11-16T17:46:29.213Z,16.38
2022-11-16T17:48:56.610Z,16.02
2022-11-16T17:51:25.257Z,14.95
2022-11-16T17:53:52.529Z,17.17
2022-11-16T17:56:21.289Z,20.33
2022-11-16T17:58:50.202Z,25.50
2022-11-16T18:01:17.242Z,15.60
2022-11-16T18:03:44.241Z,23.05
2022-11-16T18:06:13.738Z,23.73
2022-11-16T18:08:41.858Z,28.20
2022-11-16T18:11:20.793Z,23.20
2022-11-16T18:13:48.472Z,32.20
2022-11-16T18:16:18.506Z,42.33
2022-11-16T18:18:46.646Z,37.65
2022-11-16T18:21:20.360Z,34.67
2022-11-16T18:23:47.985Z,37.03
2022-11-16T18:26:17.551Z,39.53
2022-11-16T18:28:45.606Z,32.83
2022-11-16T18:31:15.500Z,44.10
2022-11-16T18:33:43.034Z,54.13
2022-11-16T18:36:10.533Z,45.67
2022-11-16T18:38:39.495Z,55.10
2022-11-16T18:41:12.477Z,50.30
2022-11-16T18:43:50.410Z,42.60
2022-11-16T18:46:18.932Z,47.47
2022-11-16T18:48:46.816Z,47.75
2022-11-16T18:51:15.850Z,46.83
2022-11-16T18:53:42.711Z,51.42
2022-11-16T18:56:09.799Z,53.70
2022-11-16T18:58:50.229Z,63.05
2022-11-16T19:01:22.421Z,49.30
2022-11-16T19:03:49.627Z,44.42
2022-11-16T19:06:17.908Z,50.13
2022-11-16T19:08:53.709Z,49.33
2022-11-16T19:11:23.364Z,55.55
2022-11-16T19:13:54.127Z,52.67
2022-11-16T19:16:21.515Z,52.78
2022-11-16T19:18:48.486Z,56.40
2022-11-16T19:21:18.587Z,63.40
2022-11-16T19:23:47.781Z,79.88
2022-11-16T19:26:16.261Z,65.85
2022-11-16T19:28:45.097Z,99.45
2022-11-16T19:31:14.268Z,87.63
2022-11-16T19:33:44.816Z,52.30
2022-11-16T19:36:13.920Z,49.85
2022-11-16T19:38:41.283Z,52.75
2022-11-16T19:41:10.856Z,47.00
2022-11-16T19:43:38.064Z,45.40
2022-11-16T19:46:10.544Z,43.35
2022-11-16T19:48:38.370Z,42.47
2022-11-16T19:51:10.343Z,48.00
2022-11-16T19:53:38.522Z,41.80
2022-11-16T19:56:06.618Z,44.08
2022-11-16T19:58:39.564Z,44.35
2022-11-16T20:01:09.867Z,43.33
2022-11-16T20:03:43.134Z,48.30
2022-11-16T20:08:49.864Z,39.38
2022-11-16T20:11:22.169Z,38.63
2022-11-16T20:13:50.772Z,41.13
2022-11-16T20:16:19.590Z,38.40
2022-11-16T20:18:47.735Z,44.30
2022-11-16T20:21:35.848Z,40.13
2022-11-16T20:24:06.867Z,35.22
2022-11-16T20:26:35.608Z,36.67
2022-11-16T20:29:03.508Z,39.08
2022-11-16T20:31:33.780Z,40.97
2022-11-16T20:34:03.448Z,35.33
2022-11-16T20:36:32.221Z,34.30
2022-11-16T20:39:00.471Z,31.10
2022-11-16T20:41:29.333Z,33.97
2022-11-16T20:43:58.664Z,34.80
2022-11-16T20:46:30.171Z,35.50
2022-11-16T20:48:59.306Z,36.65
2022-11-16T20:51:26.765Z,34.88
2022-11-16T20:53:53.876Z,35.42
2022-11-16T20:56:21.151Z,34.63
2022-11-16T20:58:49.092Z,34.42
2022-11-16T21:01:32.875Z,41.85
2022-11-16T21:04:02.286Z,37.92
2022-11-16T21:06:29.710Z,33.75
2022-11-16T21:08:56.820Z,33.85
2022-11-16T21:11:29.840Z,34.00
2022-11-16T21:14:15.365Z,32.78
2022-11-16T21:16:42.376Z,32.33
2022-11-16T21:19:09.958Z,31.50
2022-11-16T21:21:38.083Z,35.75
2022-11-16T21:24:05.354Z,36.50
2022-11-16T21:26:33.094Z,40.50
2022-11-16T21:29:01.233Z,30.80
2022-11-16T21:31:30.127Z,33.70
2022-11-16T21:33:57.923Z,37.05
2022-11-16T21:36:26.851Z,37.40
2022-11-16T21:38:54.269Z,35.30
2022-11-16T21:41:22.921Z,31.85
2022-11-16T21:43:49.855Z,35.10
2022-11-16T21:46:25.205Z,34.55
2022-11-16T21:48:53.802Z,34.88
2022-11-16T21:51:22.502Z,35.53
2022-11-16T21:53:49.437Z,36.15
2022-11-16T21:56:18.340Z,34.50
2022-11-16T21:58:45.754Z,37.70
2022-11-16T22:01:13.767Z,33.58
2022-11-16T22:03:40.665Z,35.47
2022-11-16T22:06:30.190Z,31.83
2022-11-16T22:08:57.028Z,33.80
2022-11-16T22:11:23.903Z,35.20
2022-11-16T22:13:51.002Z,31.52
2022-11-16T22:16:19.309Z,36.10
2022-11-16T22:18:46.466Z,37.47
2022-11-16T22:21:13.634Z,30.98
2022-11-16T22:23:41.014Z,35.78
2022-11-16T22:26:10.323Z,32.65
2022-11-16T22:28:37.539Z,37.63
2022-11-16T22:31:06.582Z,31.38
2022-11-16T22:33:34.293Z,35.15
2022-11-16T22:36:01.603Z,32.70
2022-11-16T22:38:28.492Z,30.15
2022-11-16T22:40:56.745Z,34.22
2022-11-16T22:43:26.329Z,35.80
2022-11-16T22:46:01.042Z,32.35
2022-11-16T22:48:36.311Z,34.00
2022-11-16T22:51:23.238Z,29.45
2022-11-16T22:53:54.144Z,30.73
2022-11-16T22:56:21.145Z,37.13
2022-11-16T22:58:47.981Z,34.67
2022-11-16T23:01:14.736Z,37.10
2022-11-16T23:03:41.696Z,32.67
2022-11-16T23:06:08.802Z,35.58
2022-11-16T23:08:36.502Z,33.92
2022-11-16T23:11:24.978Z,32.72
2022-11-16T23:14:19.735Z,36.65
2022-11-16T23:16:46.853Z,37.03
2022-11-16T23:19:35.232Z,34.03
2022-11-16T23:22:21.529Z,30.10
2022-11-16T23:25:06.745Z,31.77
2022-11-16T23:27:52.192Z,35.38
2022-11-16T23:30:19.335Z,34.55
2022-11-16T23:32:46.196Z,35.63
2022-11-16T23:35:13.550Z,28.98
2022-11-16T23:37:56.928Z,33.63
2022-11-16T23:40:27.262Z,34.35
2022-11-16T23:43:13.644Z,33.40
2022-11-16T23:45:41.708Z,30.83
2022-11-16T23:48:10.028Z,30.00
2022-11-16T23:50:36.898Z,33.83
2022-11-16T23:53:05.242Z,30.17
2022-11-16T23:55:33.302Z,32.00
2022-11-16T23:58:00.282Z,31.08
